createdAt,value
2023-06-16T00:01:09.615Z,18.63
2023-06-16T00:03:36.801Z,16.72
2023-06-16T00:06:13.450Z,18.57
2023-06-16T00:08:45.733Z,18.58
2023-06-16T00:11:19.184Z,18.33
2023-06-16T00:13:47.538Z,17.51
2023-06-16T00:16:15.543Z,17.75
2023-06-16T00:18:44.756Z,16.83
2023-06-16T00:21:14.539Z,17.96
2023-06-16T00:23:42.295Z,17.95
2023-06-16T00:26:09.065Z,18.09
2023-06-16T00:28:36.910Z,18.10
2023-06-16T00:31:03.613Z,18.04
2023-06-16T00:33:30.341Z,17.66
2023-06-16T00:35:57.188Z,17.59
2023-06-16T00:38:24.935Z,16.97
2023-06-16T00:40:52.414Z,17.73
2023-06-16T00:43:19.130Z,17.89
2023-06-16T00:45:46.015Z,17.99
2023-06-16T00:48:13.780Z,17.99
2023-06-16T00:50:40.737Z,17.75
2023-06-16T00:53:07.738Z,17.96
2023-06-16T00:55:34.701Z,16.77
2023-06-16T00:58:01.547Z,17.64
2023-06-16T01:00:28.587Z,17.42
2023-06-16T01:02:57.029Z,16.97
2023-06-16T01:05:25.798Z,15.74
2023-06-16T01:08:16.191Z,17.89
2023-06-16T01:11:12.641Z,17.98
2023-06-16T01:13:48.460Z,18.04
2023-06-16T01:16:21.584Z,17.36
2023-06-16T01:18:52.716Z,17.94
2023-06-16T01:21:42.617Z,18.00
2023-06-16T01:24:13.674Z,17.99
2023-06-16T01:26:46.188Z,17.18
2023-06-16T01:29:15.374Z,17.76
2023-06-16T01:31:44.398Z,17.98
2023-06-16T01:34:13.316Z,17.33
2023-06-16T01:36:42.601Z,17.91
2023-06-16T01:39:10.600Z,17.40
2023-06-16T01:41:38.546Z,17.76
2023-06-16T01:44:07.196Z,17.75
2023-06-16T01:49:04.196Z,17.10
2023-06-16T01:51:31.199Z,17.78
2023-06-16T01:53:57.969Z,17.60
2023-06-16T01:56:24.745Z,17.66
2023-06-16T01:58:51.477Z,17.12
2023-06-16T02:01:24.529Z,17.46
2023-06-16T02:04:00.384Z,16.15
2023-06-16T02:06:31.945Z,17.09
2023-06-16T02:09:03.756Z,17.42
2023-06-16T02:11:31.617Z,17.61
2023-06-16T02:13:58.642Z,17.61
2023-06-16T02:16:25.461Z,17.39
2023-06-16T02:18:55.300Z,17.50
2023-06-16T02:21:23.385Z,16.56
2023-06-16T02:23:52.122Z,17.39
2023-06-16T02:26:19.391Z,17.11
2023-06-16T02:28:46.135Z,17.18
2023-06-16T02:31:13.691Z,17.37
2023-06-16T02:33:41.885Z,15.30
2023-06-16T02:36:09.967Z,17.04
2023-06-16T02:38:36.877Z,17.49
2023-06-16T02:41:03.703Z,17.53
2023-06-16T02:43:30.438Z,17.57
2023-06-16T02:45:57.102Z,17.48
2023-06-16T02:48:23.990Z,17.50
2023-06-16T02:50:54.863Z,17.28
2023-06-16T02:53:21.658Z,17.38
2023-06-16T02:55:48.757Z,17.28
2023-06-16T02:58:16.742Z,17.37
2023-06-16T03:00:43.429Z,17.25
2023-06-16T03:03:10.742Z,17.48
2023-06-16T03:05:40.546Z,17.21
2023-06-16T03:08:08.431Z,17.47
2023-06-16T03:10:35.419Z,17.56
2023-06-16T03:13:06.621Z,17.39
2023-06-16T03:15:33.332Z,17.41
2023-06-16T03:18:03.717Z,16.68
2023-06-16T03:20:31.803Z,17.30
2023-06-16T03:23:08.540Z,17.30
2023-06-16T03:25:36.338Z,17.13
2023-06-16T03:28:03.627Z,17.05
2023-06-16T03:30:30.645Z,17.34
2023-06-16T03:33:12.354Z,16.83
2023-06-16T03:35:42.168Z,17.43
2023-06-16T03:38:17.374Z,17.45
2023-06-16T03:40:45.827Z,17.34
2023-06-16T03:43:12.462Z,17.50
2023-06-16T03:45:40.004Z,17.24
2023-06-16T03:48:08.498Z,17.50
2023-06-16T03:50:41.499Z,16.96
2023-06-16T03:53:15.344Z,17.48
2023-06-16T03:55:44.050Z,17.48
2023-06-16T03:58:14.593Z,17.41
2023-06-16T04:00:41.493Z,17.54
2023-06-16T04:03:09.564Z,17.58
2023-06-16T04:05:36.871Z,17.64
2023-06-16T04:08:05.069Z,17.68
2023-06-16T04:10:34.690Z,17.67
2023-06-16T04:13:01.611Z,17.72
2023-06-16T04:15:32.266Z,17.73
2023-06-16T04:17:59.458Z,17.09
2023-06-16T04:20:26.176Z,17.76
2023-06-16T04:22:53.136Z,17.79
2023-06-16T04:25:19.826Z,17.85
2023-06-16T04:27:50.700Z,17.92
2023-06-16T04:30:23.344Z,17.94
2023-06-16T04:32:50.448Z,17.76
2023-06-16T04:35:19.824Z,18.03
2023-06-16T04:37:47.148Z,17.95
2023-06-16T04:40:13.973Z,17.86
2023-06-16T04:42:40.660Z,18.13
2023-06-16T04:45:08.897Z,17.47
2023-06-16T04:47:41.605Z,17.57
2023-06-16T04:50:09.989Z,17.89
2023-06-16T04:52:40.947Z,18.31
2023-06-16T04:55:08.318Z,18.11
2023-06-16T04:57:37.054Z,18.36
2023-06-16T05:00:07.861Z,18.30
2023-06-16T05:02:35.239Z,18.44
2023-06-16T05:05:03.289Z,18.24
2023-06-16T05:07:31.496Z,18.54
2023-06-16T05:09:58.770Z,18.56
2023-06-16T05:12:29.155Z,18.16
2023-06-16T05:14:55.944Z,18.68
2023-06-16T05:17:23.547Z,18.77
2023-06-16T05:19:51.133Z,18.79
2023-06-16T05:22:24.627Z,18.84
2023-06-16T05:24:57.222Z,18.93
2023-06-16T05:27:25.251Z,19.03
2023-06-16T05:29:55.427Z,18.29
2023-06-16T05:32:23.834Z,19.10
2023-06-16T05:34:52.268Z,19.20
2023-06-16T05:37:21.342Z,19.23
2023-06-16T05:39:50.554Z,19.26
2023-06-16T05:42:17.679Z,19.19
2023-06-16T05:44:46.092Z,19.35
2023-06-16T05:47:14.823Z,19.24
2023-06-16T05:49:41.575Z,19.44
2023-06-16T05:52:08.950Z,19.34
2023-06-16T05:54:38.862Z,19.33
2023-06-16T05:57:09.969Z,19.55
2023-06-16T05:59:37.483Z,19.36
2023-06-16T06:02:04.513Z,19.58
2023-06-16T06:04:33.396Z,19.42
2023-06-16T06:07:04.561Z,19.56
2023-06-16T06:09:32.572Z,19.68
2023-06-16T06:11:59.437Z,19.76
2023-06-16T06:14:26.436Z,19.91
2023-06-16T06:16:53.175Z,19.96
2023-06-16T06:19:22.332Z,20.05
2023-06-16T06:21:49.267Z,20.10
2023-06-16T06:24:16.207Z,19.33
2023-06-16T06:26:44.424Z,19.94
2023-06-16T06:29:11.442Z,20.15
2023-06-16T06:31:38.150Z,20.23
2023-06-16T06:34:04.962Z,20.25
2023-06-16T06:36:31.910Z,20.31
2023-06-16T06:39:00.156Z,20.31
2023-06-16T06:41:27.946Z,19.65
2023-06-16T06:44:01.590Z,20.38
2023-06-16T06:46:43.079Z,20.28
2023-06-16T06:49:10.023Z,20.50
2023-06-16T06:51:37.035Z,20.34
2023-06-16T06:54:03.924Z,20.13
2023-06-16T06:56:30.745Z,20.21
2023-06-16T06:58:57.495Z,20.36
2023-06-16T07:01:24.224Z,20.36
2023-06-16T07:03:51.032Z,20.37
2023-06-16T07:06:18.294Z,20.42
2023-06-16T07:08:45.027Z,19.97
2023-06-16T07:11:11.718Z,20.52
2023-06-16T07:13:38.378Z,19.92
2023-06-16T07:18:31.942Z,20.57
2023-06-16T07:20:58.845Z,20.61
2023-06-16T07:23:27.024Z,20.57
2023-06-16T07:25:55.230Z,20.60
2023-06-16T07:28:21.915Z,20.50
2023-06-16T07:30:48.861Z,20.66
2023-06-16T07:33:15.589Z,20.83
2023-06-16T07:35:42.336Z,20.87
2023-06-16T07:38:09.086Z,20.74
2023-06-16T07:40:35.726Z,20.87
2023-06-16T07:43:02.397Z,20.87
2023-06-16T07:45:32.372Z,20.77
2023-06-16T07:48:00.190Z,20.79
2023-06-16T07:50:26.991Z,21.01
2023-06-16T07:52:53.832Z,20.99
2023-06-16T07:55:20.870Z,20.89
2023-06-16T07:57:47.540Z,20.86
2023-06-16T08:00:16.318Z,21.00
2023-06-16T08:02:43.671Z,20.68
2023-06-16T08:05:13.728Z,21.16
2023-06-16T08:07:40.500Z,21.20
2023-06-16T08:10:07.696Z,19.60
2023-06-16T08:12:34.672Z,21.26
2023-06-16T08:15:01.439Z,21.56
2023-06-16T08:17:28.688Z,21.68
2023-06-16T08:19:55.287Z,21.77
2023-06-16T08:22:22.373Z,21.85
2023-06-16T08:24:49.173Z,20.83
2023-06-16T08:27:16.314Z,21.73
2023-06-16T08:29:43.180Z,21.69
2023-06-16T08:32:10.064Z,21.80
2023-06-16T08:34:37.457Z,21.94
2023-06-16T08:37:11.022Z,21.88
2023-06-16T08:39:44.247Z,21.90
2023-06-16T08:42:14.620Z,21.65
2023-06-16T08:44:41.540Z,21.83
2023-06-16T08:47:09.357Z,21.86
2023-06-16T08:49:36.790Z,21.78
2023-06-16T08:52:04.599Z,21.82
2023-06-16T08:54:37.492Z,21.81
2023-06-16T08:57:07.322Z,21.99
2023-06-16T08:59:34.990Z,22.06
2023-06-16T09:02:02.908Z,21.98
2023-06-16T09:04:34.675Z,21.96
2023-06-16T09:07:01.526Z,22.27
2023-06-16T09:09:28.668Z,21.47
2023-06-16T09:12:14.312Z,22.21
2023-06-16T09:14:42.863Z,22.37
2023-06-16T09:17:10.650Z,22.40
2023-06-16T09:19:52.501Z,22.45
2023-06-16T09:22:21.019Z,22.47
2023-06-16T09:24:58.484Z,22.48
2023-06-16T09:27:44.737Z,22.67
2023-06-16T09:30:13.873Z,22.57
2023-06-16T09:32:41.315Z,22.42
2023-06-16T09:35:17.379Z,22.48
2023-06-16T09:37:45.272Z,22.43
2023-06-16T09:40:12.778Z,21.78
2023-06-16T09:42:39.935Z,22.20
2023-06-16T09:45:12.817Z,22.95
2023-06-16T09:47:44.299Z,23.08
2023-06-16T09:50:16.917Z,22.96
2023-06-16T09:52:45.609Z,20.82
2023-06-16T09:55:13.509Z,22.93
2023-06-16T09:57:42.804Z,22.73
2023-06-16T10:00:17.011Z,23.27
2023-06-16T10:02:46.119Z,23.11
2023-06-16T10:05:15.300Z,23.16
2023-06-16T10:07:46.177Z,23.31
2023-06-16T10:10:13.101Z,23.44
2023-06-16T10:12:48.290Z,23.01
2023-06-16T10:15:21.939Z,23.47
2023-06-16T10:17:50.841Z,23.26
2023-06-16T10:20:26.958Z,23.23
2023-06-16T10:22:55.027Z,23.10
2023-06-16T10:25:22.468Z,23.13
2023-06-16T10:27:51.706Z,21.47
2023-06-16T10:30:20.935Z,23.06
2023-06-16T10:32:54.131Z,23.38
2023-06-16T10:35:22.228Z,23.26
2023-06-16T10:37:56.877Z,23.34
2023-06-16T10:40:26.038Z,23.34
2023-06-16T10:42:58.900Z,23.59
2023-06-16T10:45:30.250Z,23.76
2023-06-16T10:48:01.193Z,23.68
2023-06-16T10:50:33.667Z,23.79
2023-06-16T10:53:09.613Z,24.29
2023-06-16T10:55:37.449Z,24.11
2023-06-16T10:58:16.574Z,24.07
2023-06-16T11:00:44.355Z,24.33
2023-06-16T11:03:11.463Z,24.30
2023-06-16T11:05:42.043Z,23.97
2023-06-16T11:08:12.254Z,24.08
2023-06-16T11:10:53.096Z,24.12
2023-06-16T11:13:24.380Z,22.78
2023-06-16T11:15:53.947Z,23.32
2023-06-16T11:18:25.598Z,23.94
2023-06-16T11:21:00.374Z,24.38
2023-06-16T11:23:27.714Z,24.28
2023-06-16T11:26:03.547Z,22.79
2023-06-16T11:28:30.512Z,24.62
2023-06-16T11:30:57.270Z,24.67
2023-06-16T11:33:25.832Z,24.39
2023-06-16T11:35:52.783Z,24.58
2023-06-16T11:38:28.481Z,24.64
2023-06-16T11:41:03.118Z,24.63
2023-06-16T11:43:37.860Z,24.50
2023-06-16T11:46:04.715Z,24.65
2023-06-16T11:48:31.607Z,25.29
2023-06-16T11:50:58.532Z,25.16
2023-06-16T11:53:25.654Z,24.95
2023-06-16T11:55:52.281Z,23.47
2023-06-16T11:58:19.267Z,24.54
2023-06-16T12:00:47.642Z,24.58
2023-06-16T12:03:15.473Z,24.92
2023-06-16T12:05:42.907Z,24.93
2023-06-16T12:08:09.775Z,25.19
2023-06-16T12:10:36.724Z,25.04
2023-06-16T12:13:08.977Z,24.59
2023-06-16T12:15:35.919Z,24.81
2023-06-16T12:18:02.802Z,25.23
2023-06-16T12:20:29.686Z,25.10
2023-06-16T12:22:57.105Z,24.91
2023-06-16T12:25:24.048Z,24.76
2023-06-16T12:27:52.682Z,24.04
2023-06-16T12:30:20.692Z,24.96
2023-06-16T12:32:47.961Z,24.53
2023-06-16T12:35:24.809Z,24.84
2023-06-16T12:37:52.034Z,25.06
2023-06-16T12:40:29.062Z,24.95
2023-06-16T12:42:55.893Z,24.91
2023-06-16T12:45:22.646Z,25.13
2023-06-16T12:47:49.403Z,25.10
2023-06-16T12:50:16.120Z,24.95
2023-06-16T12:52:43.055Z,24.71
2023-06-16T12:55:09.947Z,24.77
2023-06-16T12:57:36.780Z,24.90
2023-06-16T13:00:03.955Z,25.10
2023-06-16T13:02:33.883Z,24.97
2023-06-16T13:05:00.729Z,24.98
2023-06-16T13:07:27.498Z,24.89
2023-06-16T13:09:54.220Z,24.90
2023-06-16T13:12:20.928Z,24.82
2023-06-16T13:14:47.668Z,24.78
2023-06-16T13:17:14.354Z,24.68
2023-06-16T13:19:41.102Z,24.63
2023-06-16T13:22:08.473Z,24.51
2023-06-16T13:24:36.296Z,24.65
2023-06-16T13:27:03.195Z,24.80
2023-06-16T13:29:30.047Z,25.22
2023-06-16T13:31:56.790Z,25.37
2023-06-16T13:34:23.565Z,25.68
2023-06-16T13:36:50.202Z,25.90
2023-06-16T13:39:17.083Z,25.80
2023-06-16T13:41:43.931Z,25.84
2023-06-16T13:44:12.419Z,25.72
2023-06-16T13:46:39.851Z,24.91
2023-06-16T13:49:07.495Z,25.41
2023-06-16T13:51:35.116Z,24.98
2023-06-16T13:54:02.359Z,25.13
2023-06-16T13:56:30.611Z,25.29
2023-06-16T13:59:01.148Z,25.40
2023-06-16T14:01:28.056Z,25.41
2023-06-16T14:03:54.807Z,25.62
2023-06-16T14:06:21.555Z,24.87
2023-06-16T14:08:50.901Z,25.55
2023-06-16T14:11:17.712Z,25.00
2023-06-16T14:13:45.892Z,25.44
2023-06-16T14:16:12.589Z,24.37
2023-06-16T14:18:39.268Z,23.13
2023-06-16T14:21:06.033Z,25.02
2023-06-16T14:23:32.815Z,25.14
2023-06-16T14:25:59.546Z,25.07
2023-06-16T14:28:26.211Z,24.66
2023-06-16T14:30:52.975Z,25.55
2023-06-16T14:33:19.680Z,24.96
2023-06-16T14:35:46.415Z,25.18
2023-06-16T14:38:13.180Z,25.15
2023-06-16T14:40:39.923Z,25.01
2023-06-16T14:43:06.883Z,24.72
2023-06-16T14:45:33.618Z,24.37
2023-06-16T14:48:00.591Z,25.27
2023-06-16T14:50:27.413Z,25.21
2023-06-16T14:52:54.017Z,24.95
2023-06-16T14:55:20.959Z,24.77
2023-06-16T14:57:47.804Z,25.08
2023-06-16T15:00:15.126Z,25.07
2023-06-16T15:02:42.151Z,25.22
2023-06-16T15:05:09.227Z,25.10
2023-06-16T15:07:36.174Z,23.18
2023-06-16T15:10:03.308Z,24.26
2023-06-16T15:12:30.128Z,24.58
2023-06-16T15:14:56.887Z,24.31
2023-06-16T15:17:23.943Z,25.17
2023-06-16T15:19:51.478Z,25.09
2023-06-16T15:22:18.248Z,24.96
2023-06-16T15:24:46.298Z,25.79
2023-06-16T15:27:13.071Z,25.70
2023-06-16T15:29:39.900Z,25.58
2023-06-16T15:32:09.247Z,25.37
2023-06-16T15:34:37.556Z,25.36
2023-06-16T15:37:04.566Z,25.13
2023-06-16T15:39:31.430Z,24.72
2023-06-16T15:41:58.115Z,24.84
2023-06-16T15:44:24.862Z,23.30
2023-06-16T15:46:51.699Z,24.85
2023-06-16T15:49:18.505Z,24.90
2023-06-16T15:51:45.512Z,24.97
2023-06-16T15:54:12.379Z,24.95
2023-06-16T15:56:39.081Z,24.86
2023-06-16T15:59:05.890Z,24.96
2023-06-16T16:01:32.824Z,24.92
2023-06-16T16:03:59.788Z,24.49
2023-06-16T16:06:26.735Z,24.97
2023-06-16T16:08:53.395Z,24.50
2023-06-16T16:11:20.095Z,24.66
2023-06-16T16:13:46.869Z,24.53
2023-06-16T16:16:13.574Z,24.58
2023-06-16T16:18:40.766Z,24.62
2023-06-16T16:21:08.565Z,24.59
2023-06-16T16:23:35.454Z,24.62
2023-06-16T16:26:02.354Z,24.57
2023-06-16T16:28:29.140Z,24.48
2023-06-16T16:30:55.899Z,24.47
2023-06-16T16:33:22.733Z,24.44
2023-06-16T16:35:49.393Z,24.43
2023-06-16T16:38:16.168Z,24.25
2023-06-16T16:40:42.834Z,24.36
2023-06-16T16:43:10.322Z,24.31
2023-06-16T16:45:37.479Z,24.28
2023-06-16T16:48:04.391Z,24.03
2023-06-16T16:50:31.129Z,23.37
2023-06-16T16:52:57.817Z,24.00
2023-06-16T16:55:35.342Z,24.07
2023-06-16T16:58:03.598Z,24.06
2023-06-16T17:00:30.683Z,23.88
2023-06-16T17:02:57.544Z,23.18
2023-06-16T17:05:24.492Z,23.78
2023-06-16T17:07:51.482Z,23.78
2023-06-16T17:10:18.605Z,23.74
2023-06-16T17:12:45.604Z,23.13
2023-06-16T17:15:12.283Z,23.69
2023-06-16T17:17:39.077Z,22.32
2023-06-16T17:20:06.418Z,23.59
2023-06-16T17:22:33.302Z,23.50
2023-06-16T17:25:00.001Z,23.57
2023-06-16T17:27:26.759Z,22.74
2023-06-16T17:29:53.471Z,23.07
2023-06-16T17:32:20.652Z,23.25
2023-06-16T17:34:47.318Z,23.39
2023-06-16T17:37:14.061Z,23.34
2023-06-16T17:39:40.724Z,22.76
2023-06-16T17:42:07.586Z,23.36
2023-06-16T17:44:34.232Z,23.31
2023-06-16T17:47:01.301Z,23.37
2023-06-16T17:49:28.178Z,23.30
2023-06-16T17:51:54.860Z,23.35
2023-06-16T17:54:21.671Z,23.31
2023-06-16T17:56:48.411Z,23.31
2023-06-16T17:59:15.193Z,23.29
2023-06-16T18:01:43.149Z,22.89
2023-06-16T18:04:10.091Z,22.80
2023-06-16T18:06:36.959Z,23.20
2023-06-16T18:09:03.886Z,23.24
2023-06-16T18:11:30.713Z,23.24
2023-06-16T18:13:57.451Z,23.23
2023-06-16T18:16:24.381Z,23.24
2023-06-16T18:18:51.533Z,23.21
2023-06-16T18:21:18.706Z,23.16
2023-06-16T18:23:45.553Z,22.42
2023-06-16T18:26:12.252Z,22.80
2023-06-16T18:28:39.031Z,22.63
2023-06-16T18:31:06.424Z,22.93
2023-06-16T18:33:33.333Z,22.83
2023-06-16T18:36:00.066Z,23.03
2023-06-16T18:38:26.804Z,21.07
2023-06-16T18:40:53.524Z,22.90
2023-06-16T18:43:24.881Z,22.90
2023-06-16T18:45:54.782Z,22.68
2023-06-16T18:48:21.590Z,22.93
2023-06-16T18:50:48.309Z,22.42
2023-06-16T18:53:15.033Z,22.92
2023-06-16T18:55:44.646Z,22.90
2023-06-16T18:58:11.613Z,22.88
2023-06-16T19:00:38.582Z,22.47
2023-06-16T19:03:06.267Z,22.85
2023-06-16T19:05:33.608Z,22.64
2023-06-16T19:08:00.763Z,22.82
2023-06-16T19:10:27.917Z,22.81
2023-06-16T19:12:54.748Z,22.82
2023-06-16T19:15:23.456Z,22.81
2023-06-16T19:17:51.644Z,22.74
2023-06-16T19:20:18.767Z,22.55
2023-06-16T19:22:46.312Z,22.65
2023-06-16T19:25:13.258Z,22.61
2023-06-16T19:27:40.312Z,22.55
2023-06-16T19:30:07.726Z,22.50
2023-06-16T19:32:35.872Z,22.27
2023-06-16T19:35:03.088Z,22.44
2023-06-16T19:37:34.019Z,22.50
2023-06-16T19:40:00.902Z,22.46
2023-06-16T19:42:27.717Z,22.40
2023-06-16T19:44:57.431Z,22.35
2023-06-16T19:47:25.351Z,22.46
2023-06-16T19:49:52.118Z,22.40
2023-06-16T19:52:18.825Z,22.42
2023-06-16T19:54:45.813Z,21.82
2023-06-16T19:57:13.289Z,22.00
2023-06-16T19:59:40.480Z,21.81
2023-06-16T20:02:07.722Z,22.33
2023-06-16T20:04:35.391Z,22.29
2023-06-16T20:07:02.921Z,21.39
2023-06-16T20:09:29.681Z,20.68
2023-06-16T20:11:56.389Z,21.97
2023-06-16T20:14:23.268Z,21.87
2023-06-16T20:16:50.151Z,22.01
2023-06-16T20:19:16.976Z,22.02
2023-06-16T20:21:43.624Z,21.99
2023-06-16T20:24:12.234Z,21.98
2023-06-16T20:26:39.899Z,21.80
2023-06-16T20:29:06.821Z,21.90
2023-06-16T20:31:34.560Z,21.97
2023-06-16T20:34:01.753Z,21.78
2023-06-16T20:36:28.637Z,21.89
2023-06-16T20:38:55.284Z,21.40
2023-06-16T20:41:29.391Z,21.14
2023-06-16T20:43:57.326Z,20.06
2023-06-16T20:46:24.481Z,21.13
2023-06-16T20:48:51.372Z,21.76
2023-06-16T20:51:18.056Z,21.76
2023-06-16T20:53:45.109Z,21.73
2023-06-16T20:56:12.994Z,21.69
2023-06-16T20:58:39.690Z,21.62
2023-06-16T21:01:06.978Z,21.51
2023-06-16T21:03:33.773Z,21.39
2023-06-16T21:06:01.215Z,21.32
2023-06-16T21:08:33.746Z,21.35
2023-06-16T21:11:01.741Z,21.38
2023-06-16T21:13:29.607Z,21.43
2023-06-16T21:16:02.176Z,19.15
2023-06-16T21:18:33.181Z,21.42
2023-06-16T21:20:59.904Z,21.44
2023-06-16T21:23:27.795Z,21.32
2023-06-16T21:25:54.564Z,21.36
2023-06-16T21:28:21.214Z,21.36
2023-06-16T21:30:47.954Z,21.32
2023-06-16T21:33:14.589Z,21.29
2023-06-16T21:35:41.604Z,21.30
2023-06-16T21:38:11.429Z,21.30
2023-06-16T21:40:38.568Z,21.02
2023-06-16T21:43:05.352Z,21.32
2023-06-16T21:45:32.100Z,20.99
2023-06-16T21:47:58.708Z,21.32
2023-06-16T21:50:25.820Z,21.17
2023-06-16T21:52:54.349Z,21.25
2023-06-16T21:55:21.150Z,21.21
2023-06-16T21:57:47.902Z,20.85
2023-06-16T22:00:15.241Z,21.19
2023-06-16T22:02:42.287Z,20.35
2023-06-16T22:05:10.447Z,20.51
2023-06-16T22:07:41.178Z,21.11
2023-06-16T22:10:10.022Z,21.07
2023-06-16T22:12:38.080Z,20.95
2023-06-16T22:15:06.034Z,20.54
2023-06-16T22:17:35.077Z,20.83
2023-06-16T22:20:02.265Z,20.23
2023-06-16T22:22:28.939Z,20.72
2023-06-16T22:24:55.645Z,20.44
2023-06-16T22:27:22.672Z,19.98
2023-06-16T22:29:51.036Z,19.89
2023-06-16T22:32:18.295Z,20.59
2023-06-16T22:34:45.465Z,20.50
2023-06-16T22:37:15.093Z,20.51
2023-06-16T22:39:43.292Z,20.43
2023-06-16T22:42:09.920Z,20.43
2023-06-16T22:44:36.563Z,20.32
2023-06-16T22:47:03.550Z,20.31
2023-06-16T22:49:30.317Z,20.33
2023-06-16T22:51:58.818Z,20.22
2023-06-16T22:54:27.280Z,20.14
2023-06-16T22:56:54.537Z,20.06
2023-06-16T22:59:21.743Z,20.05
2023-06-16T23:01:49.142Z,19.44
2023-06-16T23:04:16.203Z,20.04
2023-06-16T23:06:42.888Z,19.86
2023-06-16T23:09:09.894Z,19.46
2023-06-16T23:11:36.544Z,18.62
2023-06-16T23:14:03.704Z,19.67
2023-06-16T23:16:31.027Z,19.08
2023-06-16T23:18:58.036Z,19.56
2023-06-16T23:21:28.793Z,19.55
2023-06-16T23:23:56.345Z,19.56
2023-06-16T23:26:23.867Z,19.52
2023-06-16T23:28:51.359Z,19.47
2023-06-16T23:31:20.137Z,19.32
2023-06-16T23:33:50.091Z,19.24
2023-06-16T23:36:19.747Z,18.68
2023-06-16T23:38:46.601Z,19.40
2023-06-16T23:41:14.211Z,18.65
2023-06-16T23:43:41.109Z,19.06
2023-06-16T23:46:08.521Z,18.86
2023-06-16T23:48:35.528Z,18.97
2023-06-16T23:51:02.535Z,18.89
2023-06-16T23:53:31.343Z,18.94
2023-06-16T23:55:58.163Z,18.90
2023-06-16T23:58:26.101Z,19.01
